Terminal Aerodrome Forecast
Issued by NWS

Home | Current Version | Previous Version | Text Only | Print | Product List | Glossary On
Versions: 1 2 3 4 5 6 7 8 9 10 11 12 13
433
FTUS42 KMLB 100533
TAFFPR
TAF
KFPR 100533Z 1006/1106 27005KT P6SM BKN040 OVC250
     FM101400 29013G20KT P6SM SCT250
     FM110100 29004KT P6SM SKC=

USA.gov is the U.S. government's official web portal to all federal, state and local government web resources and services.